Terminal Aerodrome Forecast
Issued by NWS

Home | Current Version | Previous Version | Graphics & Text | Print | Product List | Glossary On
Versions: 1 2 3 4 5 6 7 8 9 10 11 12 13 14 15 16 17 18 19 20 21 22 23 24 25 26 27 28 29 30 31 32 33 34 35
000
FTUS43 KLOT 241000 AAB
TAFDPA
TAF AMD
KDPA 241029Z 2410/2506 VRB03KT P6SM OVC025
     FM241400 27004KT P6SM SCT010 OVC020
     FM241800 24007KT P6SM SCT025 SCT250
     FM250000 22004KT P6SM BKN080
     FM250400 21006KT 3SM BR BKN015=

USA.gov is the U.S. government's official web portal to all federal, state and local government web resources and services.